Airfield :







YOU CAN JOIN US ON...

 
LOGIN :

Register | Disclaimer

   EN    FR    IT 

 









Legend :    VFR   Marginal VFR   IFR   Intensive IFR   Very Intensive IFR
Visi :
Ceiling :
>= 8 km
>= 3000ft
5 to 8 km
1000 to 3000 ft
1500m to 5 km
500 to 1000 ft
800 to 1500m
200 to 500 ft
< 800m
< 200 ft
Symbols :   Thunderstorms  Fog  Heavy snow  Heavy precipitations  Wind > 20 kt







- Airport Elevation : 27 ft
- IATA code : FSP
- Download approach charts


LFVP - St Pierre et Miquelon

CURRENT METAR :
  • 181300Z 25018KT 9999 BKN026 M01/M08 Q1016 NOSIG

EXPIRED METARs :
  • 181200Z 25017KT 9999 -SHSN BKN026 M03/M08 Q1016 NOSIG
  • 181100Z 27014KT 9999 BKN026 M03/M08 Q1015 NOSIG

TAF TAF LFVP
Valid from the 18 at 12:00 until the 18 at 21:00 UTC


181100Z 1812/1821 26020KT 9999 BKN026
PROB30
TEMPO 1812/1821 3000 -SHSN BKN015
CZQX FIR / North America



MET'MAP, your aeronautical weather chart ! - Copyright ORBIFLY December 2007 - Disclaimer

ORBIFLY MET'MAP TEAM :

Programming & Development : Alexandra Zaïnal
Concept & Development : Baudouin d'Aumeries
Co-Development & Prog : Marc-Olivier Méhu
Technical & hardware support : Manuel Goepfert

Contact : metmap@orbifly.com




SOURCES & CREDITS :

   NOAA